Time;durP1;ratioP1;P1;durP2;ratioP2;P2;SDS_P1;SDS_P2;PMS_P1;PMS_P2;Temp;Humidity;BMP_temperature;BMP_pressure;BME280_temperature;BME280_humidity;BME280_pressure;Samples;Min_cycle;Max_cycle;Signal;HPM_P1;HPM_P2
2022/12/03 00:01:38;;;;;;;;;29.75;20.50;;;;;4.79;78.76;101506.59;5058720;28;50045;-88
2022/12/03 00:04:07;;;;;;;;;30.50;21.50;;;;;4.79;78.79;101501.41;5055431;28;45435;-88
2022/12/03 00:06:32;;;;;;;;;35.00;21.75;;;;;4.80;78.62;101498.00;5038100;28;57155;-88
2022/12/03 00:08:57;;;;;;;;;22.25;18.75;;;;;4.77;78.64;101506.59;5041800;28;47204;-87
2022/12/03 00:11:23;;;;;;;;;27.00;19.50;;;;;4.79;78.65;101509.16;5075664;28;45261;-88
2022/12/03 00:13:48;;;;;;;;;34.50;21.25;;;;;4.81;78.57;101505.75;5058981;28;45317;-88
2022/12/03 00:16:13;;;;;;;;;26.25;19.00;;;;;4.83;78.39;101508.34;5041615;28;49753;-88
2022/12/03 00:18:39;;;;;;;;;33.50;21.00;;;;;4.84;78.46;101507.47;5059941;28;45247;-88
2022/12/03 00:21:04;;;;;;;;;25.00;19.25;;;;;4.85;78.31;101501.47;5062145;28;45368;-88
2022/12/03 00:23:30;;;;;;;;;21.50;17.50;;;;;4.87;78.25;101501.47;5062378;28;45384;-88
2022/12/03 00:25:55;;;;;;;;;24.00;13.00;;;;;4.87;78.04;101488.56;5045482;28;45202;-88
2022/12/03 00:28:20;;;;;;;;;32.50;23.00;;;;;4.87;78.23;101494.63;5045141;28;49138;-88
2022/12/03 00:30:46;;;;;;;;;39.25;26.25;;;;;4.83;78.06;101493.72;5061439;28;45521;-89
2022/12/03 00:33:11;;;;;;;;;32.00;20.75;;;;;4.85;78.12;101486.00;5062266;28;45337;-88
2022/12/03 00:35:36;;;;;;;;;39.75;25.75;;;;;4.85;78.29;101486.00;5061971;28;47299;-87
2022/12/03 00:38:02;;;;;;;;;30.00;25.75;;;;;4.84;78.05;101492.88;5061579;28;46993;-88
2022/12/03 00:40:27;;;;;;;;;30.25;21.00;;;;;4.82;78.35;101476.50;5047788;27;50255;-88
2022/12/03 00:42:53;;;;;;;;;34.25;24.50;;;;;4.80;78.16;101483.38;5065807;27;45717;-88
2022/12/03 00:45:18;;;;;;;;;33.00;21.50;;;;;4.83;78.24;101475.69;5064905;27;45351;-88
2022/12/03 00:47:43;;;;;;;;;39.00;23.50;;;;;4.83;78.15;101472.25;5100246;27;47351;-88
2022/12/03 00:50:09;;;;;;;;;34.50;21.75;;;;;4.85;77.98;101467.94;5082089;27;45435;-88
2022/12/03 00:52:34;;;;;;;;;28.75;20.00;;;;;4.83;77.73;101467.94;5064991;27;45523;-88
2022/12/03 00:55:00;;;;;;;;;33.75;20.00;;;;;4.82;78.05;101468.78;5081850;27;51398;-88
2022/12/03 00:57:25;;;;;;;;;34.00;20.50;;;;;4.81;78.28;101472.22;5065179;27;47402;-87
2022/12/03 00:59:51;;;;;;;;;44.25;22.25;;;;;4.82;77.84;101471.34;5064750;27;45980;-88
2022/12/03 01:02:16;;;;;;;;;34.00;22.25;;;;;4.85;77.81;101475.69;5065207;27;45331;-88
2022/12/03 01:04:41;;;;;;;;;22.50;17.00;;;;;4.89;77.95;101479.16;5066922;28;49328;-88
2022/12/03 01:07:07;;;;;;;;;40.00;27.25;;;;;4.90;77.94;101475.69;5061112;28;55923;-88
2022/12/03 01:09:32;;;;;;;;;34.25;24.00;;;;;4.90;77.70;101473.97;5044657;28;56871;-88
2022/12/03 01:11:58;;;;;;;;;34.75;22.00;;;;;4.91;77.87;101474.88;5061890;28;45534;-88
2022/12/03 01:14:23;;;;;;;;;25.75;14.00;;;;;4.89;77.76;101474.84;5061364;28;45340;-88
2022/12/03 01:16:48;;;;;;;;;35.50;24.50;;;;;4.90;77.73;101473.13;5061692;28;45406;-88
2022/12/03 01:19:15;;;;;;;;;35.25;25.00;;;;;4.90;77.83;101471.41;5061451;28;45498;-88
2022/12/03 01:21:46;;;;;;;;;32.75;24.25;;;;;4.91;77.59;101473.13;5044747;28;45251;-88
2022/12/03 01:24:12;;;;;;;;;40.75;26.25;;;;;4.93;77.80;101471.44;5044687;28;45236;-88
2022/12/03 01:26:37;;;;;;;;;40.00;23.25;;;;;4.94;77.42;101474.88;5061256;28;47520;-88
2022/12/03 01:29:03;;;;;;;;;28.75;19.00;;;;;4.94;77.60;101475.75;5060357;28;45344;-88
2022/12/03 01:34:13;;;;;;;;;28.00;21.00;;;;;4.90;77.37;101467.97;5064269;28;45364;-88
2022/12/03 01:36:39;;;;;;;;;41.50;24.00;;;;;4.90;77.27;101466.25;5060385;28;65207;-89
2022/12/03 01:39:04;;;;;;;;;34.75;23.50;;;;;4.90;77.04;101460.22;5061210;28;45613;-88
2022/12/03 01:41:31;;;;;;;;;31.50;20.50;;;;;4.89;77.09;101469.69;5057545;28;45422;-89
2022/12/03 01:43:57;;;;;;;;;34.50;23.25;;;;;4.87;77.27;101467.94;5040744;28;45466;-88
2022/12/03 01:46:24;;;;;;;;;32.75;21.75;;;;;4.88;77.38;101469.66;5040870;28;47980;-88
2022/12/03 01:48:51;;;;;;;;;36.50;26.00;;;;;4.88;77.34;101469.66;5024108;28;45873;-89
2022/12/03 01:51:17;;;;;;;;;35.00;21.50;;;;;4.88;76.96;101472.25;5040676;28;45369;-89
2022/12/03 01:53:43;;;;;;;;;33.75;21.75;;;;;4.90;77.60;101473.13;5024391;28;45362;-88
2022/12/03 01:56:11;;;;;;;;;33.25;23.25;;;;;4.90;76.98;101480.88;5040511;28;60965;-88
2022/12/03 01:58:37;;;;;;;;;29.75;23.75;;;;;4.90;77.38;101479.13;5040328;28;45516;-89
2022/12/03 02:01:09;;;;;;;;;38.50;25.00;;;;;4.88;77.08;101478.28;5040888;28;45427;-88
2022/12/03 02:03:35;;;;;;;;;20.50;15.25;;;;;4.88;76.93;101478.28;5045660;28;45548;-89
2022/12/03 02:06:00;;;;;;;;;37.25;21.00;;;;;4.87;77.09;101484.31;5078820;28;46511;-88
2022/12/03 02:08:27;;;;;;;;;24.00;17.50;;;;;4.87;76.84;101475.66;5060888;28;45386;-88
2022/12/03 02:10:52;;;;;;;;;43.25;21.75;;;;;4.87;76.66;101473.97;5060911;28;45419;-89
2022/12/03 02:13:18;;;;;;;;;23.75;20.75;;;;;4.90;77.10;101475.69;5043585;28;49495;-88
2022/12/03 02:15:43;;;;;;;;;41.50;25.25;;;;;4.89;77.08;101479.16;5043771;28;47101;-89
2022/12/03 02:18:09;;;;;;;;;34.25;17.75;;;;;4.92;76.94;101480.03;5060180;28;57098;-88
2022/12/03 02:20:41;;;;;;;;;25.50;21.75;;;;;4.90;76.78;101470.53;5060601;28;45407;-89
2022/12/03 02:23:13;;;;;;;;;35.25;21.25;;;;;4.94;77.06;101482.59;5060634;28;45262;-89
2022/12/03 02:25:38;;;;;;;;;38.75;26.50;;;;;4.94;76.49;101475.75;5043630;28;47365;-89
2022/12/03 02:28:05;;;;;;;;;35.50;19.75;;;;;4.93;76.95;101475.72;5077889;28;47837;-88
2022/12/03 02:30:31;;;;;;;;;29.25;20.25;;;;;4.94;76.70;101474.88;5060765;28;45556;-88
2022/12/03 02:32:57;;;;;;;;;24.75;19.25;;;;;4.90;76.63;101470.53;5043841;28;45483;-88
2022/12/03 02:35:25;;;;;;;;;31.75;19.75;;;;;4.83;76.23;101465.34;5043598;28;47199;-88
2022/12/03 02:38:08;;;;;;;;;35.25;26.25;;;;;4.83;76.32;101475.69;5060428;28;45786;-88
2022/12/03 02:40:34;;;;;;;;;30.75;18.75;;;;;4.83;76.83;101469.66;5042420;28;45379;-88
2022/12/03 02:43:01;;;;;;;;;38.50;24.50;;;;;4.83;76.62;101467.94;5059880;28;45390;-88
2022/12/03 02:45:35;;;;;;;;;29.25;20.75;;;;;4.84;76.54;101468.78;5093732;27;45424;-88
2022/12/03 02:48:13;;;;;;;;;33.50;22.75;;;;;4.85;76.52;101467.94;5080311;27;45786;-89
2022/12/03 02:51:00;;;;;;;;;29.25;22.50;;;;;4.85;76.43;101466.22;5063405;27;45372;-88
2022/12/03 02:53:29;;;;;;;;;26.75;18.75;;;;;4.87;76.36;101466.25;5063486;27;45414;-88
2022/12/03 02:55:57;;;;;;;;;29.00;20.00;;;;;4.89;76.23;101474.00;5063203;27;48319;-88
2022/12/03 02:58:24;;;;;;;;;31.00;19.25;;;;;4.88;76.12;101459.34;5080290;27;45743;-89
2022/12/03 03:00:51;;;;;;;;;29.00;23.50;;;;;4.87;75.85;101461.09;5080384;27;45382;-88
2022/12/03 03:03:17;;;;;;;;;22.00;17.75;;;;;4.83;76.05;101459.34;5077660;27;45492;-89
2022/12/03 03:05:43;;;;;;;;;25.75;20.50;;;;;4.84;75.73;101451.59;5042755;28;52035;-89
2022/12/03 03:08:09;;;;;;;;;35.25;22.75;;;;;4.86;76.40;101449.03;5043151;28;45469;-88
2022/12/03 03:10:36;;;;;;;;;46.25;22.00;;;;;4.85;76.13;101443.00;5059731;28;46476;-88
2022/12/03 03:13:08;;;;;;;;;29.00;20.00;;;;;4.85;75.86;101439.56;5059977;28;45484;-88
2022/12/03 03:15:34;;;;;;;;;30.75;20.50;;;;;4.86;75.82;101449.03;5059598;28;47551;-88
2022/12/03 03:18:00;;;;;;;;;24.75;17.00;;;;;4.82;75.88;101442.97;5042648;28;45398;-88
2022/12/03 03:20:25;;;;;;;;;40.00;23.00;;;;;4.82;75.73;101447.28;5059536;28;45396;-88
2022/12/03 03:22:51;;;;;;;;;34.50;20.25;;;;;4.81;75.79;101448.13;5060010;28;45643;-88
2022/12/03 03:25:19;;;;;;;;;24.00;19.75;;;;;4.79;75.82;101449.84;5059136;28;45542;-89
2022/12/03 03:27:45;;;;;;;;;28.25;23.00;;;;;4.78;76.27;101456.72;5042927;28;45319;-89
2022/12/03 03:30:11;;;;;;;;;31.50;21.00;;;;;4.76;75.80;101458.44;5059693;28;45426;-88
2022/12/03 03:32:37;;;;;;;;;24.75;16.75;;;;;4.78;75.89;101461.88;5076325;28;45503;-88
2022/12/03 03:35:03;;;;;;;;;29.75;22.00;;;;;4.78;76.04;101456.72;5059234;28;46557;-88
2022/12/03 03:37:29;;;;;;;;;21.50;17.00;;;;;4.79;76.11;101462.72;5042503;28;45451;-88
2022/12/03 03:39:54;;;;;;;;;34.00;21.25;;;;;4.78;75.84;101461.88;5042201;28;45538;-88
2022/12/03 03:42:20;;;;;;;;;30.00;19.25;;;;;4.79;75.80;101461.03;5077198;28;45451;-87
2022/12/03 03:44:46;;;;;;;;;29.50;20.75;;;;;4.81;75.85;101458.44;5042874;28;46953;-88
2022/12/03 03:47:12;;;;;;;;;37.25;23.25;;;;;4.82;75.47;101460.19;5059723;28;45368;-88
2022/12/03 03:49:38;;;;;;;;;36.75;27.00;;;;;4.80;75.27;101447.28;5042593;28;45256;-88
2022/12/03 03:52:03;;;;;;;;;31.25;23.00;;;;;4.78;75.09;101450.72;5043260;28;45384;-89
2022/12/03 03:54:44;;;;;;;;;26.00;19.75;;;;;4.77;75.86;101441.22;5005636;28;45527;-88
2022/12/03 03:57:10;;;;;;;;;19.75;15.75;;;;;4.77;75.44;101444.69;5018377;28;45322;-88
2022/12/03 03:59:35;;;;;;;;;24.75;22.50;;;;;4.79;75.74;101444.69;5018248;28;45388;-88
2022/12/03 04:02:00;;;;;;;;;32.25;22.75;;;;;4.77;75.43;101444.69;5018129;28;45453;-88
2022/12/03 04:04:27;;;;;;;;;23.00;17.75;;;;;4.77;75.40;101448.97;5006052;28;47439;-89
2022/12/03 04:06:52;;;;;;;;;32.00;20.25;;;;;4.76;75.67;101450.69;4981869;28;45429;-88
2022/12/03 04:09:18;;;;;;;;;35.75;21.75;;;;;4.74;75.65;101443.81;4981539;28;45373;-88
2022/12/03 04:14:27;;;;;;;;;26.50;18.75;;;;;4.77;75.36;101448.97;5000578;28;45436;-88
2022/12/03 04:16:52;;;;;;;;;22.50;15.75;;;;;4.77;75.20;101459.28;4998328;28;45873;-89
2022/12/03 04:19:17;;;;;;;;;25.25;15.75;;;;;4.78;75.40;101448.97;4998140;28;45349;-89
2022/12/03 04:24:27;;;;;;;;;24.75;17.25;;;;;4.79;74.59;101453.31;5000137;28;45887;-89
2022/12/03 04:29:38;;;;;;;;;19.00;7.00;;;;;4.81;74.82;101445.53;5000789;28;45558;-88
2022/12/03 04:37:31;;;;;;;;;22.25;16.75;;;;;4.80;74.95;101433.53;5061119;28;45348;-89
2022/12/03 04:39:56;;;;;;;;;23.50;18.75;;;;;4.78;74.52;101430.06;5041977;28;45289;-88
2022/12/03 04:42:22;;;;;;;;;33.00;19.25;;;;;4.76;74.26;101439.53;5058097;28;56430;-89
2022/12/03 04:44:47;;;;;;;;;14.50;11.00;;;;;4.75;74.90;101438.63;5058633;28;49728;-89
2022/12/03 04:47:18;;;;;;;;;30.00;20.25;;;;;4.76;74.30;101437.78;5041668;28;53898;-89
2022/12/03 04:49:48;;;;;;;;;29.50;19.00;;;;;4.75;74.08;101433.47;5058640;28;45467;-89
2022/12/03 04:52:15;;;;;;;;;31.50;16.25;;;;;4.75;74.29;101428.31;5058328;28;45297;-88
2022/12/03 04:54:41;;;;;;;;;24.25;16.50;;;;;4.79;74.34;101431.78;5041634;28;47121;-88
2022/12/03 04:57:07;;;;;;;;;24.00;19.75;;;;;4.75;74.31;101423.16;5041886;28;45506;-89
2022/12/03 04:59:33;;;;;;;;;27.00;20.50;;;;;4.72;74.28;101420.56;5058399;28;45443;-89
2022/12/03 05:01:58;;;;;;;;;25.00;17.25;;;;;4.70;74.42;101426.56;5041442;28;45448;-88
2022/12/03 05:04:24;;;;;;;;;30.75;19.00;;;;;4.73;74.35;101430.03;5039296;28;48607;-89
2022/12/03 05:06:50;;;;;;;;;31.50;22.75;;;;;4.72;74.53;101425.75;5060708;28;45439;-88
2022/12/03 05:09:15;;;;;;;;;33.25;21.25;;;;;4.75;74.39;101436.06;5045054;28;45369;-89
2022/12/03 05:11:41;;;;;;;;;21.00;18.00;;;;;4.77;74.38;101433.50;5062502;28;45356;-89
2022/12/03 05:14:07;;;;;;;;;26.75;21.25;;;;;4.79;74.06;101421.47;5061918;28;45379;-89
2022/12/03 05:16:32;;;;;;;;;30.50;16.75;;;;;4.78;74.11;101419.75;5061834;28;45480;-89
2022/12/03 05:18:58;;;;;;;;;25.50;17.75;;;;;4.80;73.84;101420.63;5044978;28;45468;-88
2022/12/03 05:21:23;;;;;;;;;21.00;11.00;;;;;4.77;74.03;101426.63;5044457;28;45310;-88
2022/12/03 05:23:49;;;;;;;;;32.25;21.50;;;;;4.74;73.99;101423.19;5044060;28;57744;-88
2022/12/03 05:26:14;;;;;;;;;23.50;16.00;;;;;4.74;73.78;101431.75;5061170;28;56159;-88
2022/12/03 05:28:39;;;;;;;;;28.00;20.25;;;;;4.74;73.82;101426.59;5061477;28;45345;-89
2022/12/03 05:31:05;;;;;;;;;35.00;22.75;;;;;4.75;73.57;101415.41;5061422;28;45436;-91
2022/12/03 05:33:31;;;;;;;;;23.25;18.75;;;;;4.77;74.28;101416.31;5061364;28;45454;-88
2022/12/03 05:35:57;;;;;;;;;19.50;17.00;;;;;4.80;74.01;101416.31;5078915;28;45437;-89
2022/12/03 05:38:23;;;;;;;;;20.00;14.75;;;;;4.79;73.76;101418.88;5077671;28;58943;-88
2022/12/03 05:40:48;;;;;;;;;20.25;15.00;;;;;4.79;74.01;101422.34;5040411;28;45782;-89
2022/12/03 05:43:13;;;;;;;;;27.50;18.25;;;;;4.77;73.46;101425.75;5040859;28;46936;-88
2022/12/03 05:45:46;;;;;;;;;21.50;16.25;;;;;4.79;73.40;101426.63;5041003;28;48531;-88
2022/12/03 05:48:13;;;;;;;;;25.25;14.00;;;;;4.80;73.69;101431.78;5059010;28;45280;-88
2022/12/03 05:50:42;;;;;;;;;22.25;20.50;;;;;4.82;73.60;101429.22;5057167;28;45407;-89
2022/12/03 05:53:08;;;;;;;;;25.00;19.50;;;;;4.80;73.64;101415.47;5039341;28;46783;-88
2022/12/03 05:55:33;;;;;;;;;16.75;7.75;;;;;4.81;73.70;101418.06;5041044;28;45358;-88
2022/12/03 05:57:59;;;;;;;;;26.50;19.75;;;;;4.82;73.40;101419.75;5057583;28;45664;-88
2022/12/03 06:00:27;;;;;;;;;30.00;17.75;;;;;4.80;73.32;101428.34;5057766;28;45584;-89
2022/12/03 06:02:53;;;;;;;;;21.25;16.75;;;;;4.78;73.24;101410.28;5058292;28;45565;-89
2022/12/03 06:05:19;;;;;;;;;27.75;19.00;;;;;4.75;73.20;101422.31;5076651;28;45742;-88
2022/12/03 06:07:45;;;;;;;;;17.50;13.00;;;;;4.75;73.40;101419.72;5061666;28;45416;-88
2022/12/03 06:10:12;;;;;;;;;25.00;13.50;;;;;4.75;73.02;101423.16;5044229;28;45500;-89
2022/12/03 06:12:38;;;;;;;;;21.75;16.50;;;;;4.77;73.61;101426.63;5043712;28;48207;-88
2022/12/03 06:15:04;;;;;;;;;16.75;14.00;;;;;4.77;73.58;101418.91;5078716;28;45427;-88
2022/12/03 06:17:30;;;;;;;;;23.50;16.50;;;;;4.77;73.20;101418.00;5078809;28;45237;-88
2022/12/03 06:19:55;;;;;;;;;21.00;12.00;;;;;4.78;73.33;101412.88;5060332;28;45305;-88
2022/12/03 06:22:20;;;;;;;;;18.00;14.75;;;;;4.76;72.96;101418.88;5043403;28;59505;-88
2022/12/03 06:24:46;;;;;;;;;20.00;16.75;;;;;4.76;73.02;101413.72;5060253;28;55167;-88
2022/12/03 06:27:11;;;;;;;;;24.50;14.75;;;;;4.78;73.39;101409.44;5043379;28;54123;-89
2022/12/03 06:29:37;;;;;;;;;20.25;13.50;;;;;4.80;73.32;101420.63;5060876;28;50732;-89
2022/12/03 06:32:03;;;;;;;;;19.25;13.50;;;;;4.79;72.94;101408.56;5060351;28;47355;-87
2022/12/03 06:34:28;;;;;;;;;29.25;15.00;;;;;4.75;72.97;101407.69;5078139;28;45311;-87
2022/12/03 06:36:54;;;;;;;;;29.50;17.00;;;;;4.77;73.32;101413.75;5077726;28;45671;-88
2022/12/03 06:39:19;;;;;;;;;17.00;11.50;;;;;4.76;73.03;101411.16;5059959;28;57400;-88
2022/12/03 06:41:44;;;;;;;;;19.00;15.25;;;;;4.75;72.87;101418.00;5042706;28;61992;-89
2022/12/03 06:44:10;;;;;;;;;22.75;15.75;;;;;4.75;73.00;101412.00;5057688;28;51392;-88
2022/12/03 06:46:35;;;;;;;;;26.50;17.75;;;;;4.76;73.04;101411.16;5059667;28;64122;-89
2022/12/03 06:49:01;;;;;;;;;32.75;18.00;;;;;4.76;73.10;101413.72;5074260;28;55917;-88
2022/12/03 06:51:26;;;;;;;;;22.50;16.50;;;;;4.75;73.14;101410.25;5076702;28;45362;-88
2022/12/03 06:53:52;;;;;;;;;22.00;13.00;;;;;4.75;72.98;101402.53;5078987;27;49330;-88
2022/12/03 06:56:17;;;;;;;;;18.75;13.50;;;;;4.75;72.91;101402.53;5062719;27;56521;-88
2022/12/03 06:58:42;;;;;;;;;22.00;16.75;;;;;4.75;73.01;101406.81;5063492;27;45470;-88
2022/12/03 07:01:08;;;;;;;;;26.75;16.50;;;;;4.72;72.55;101410.25;5063018;27;47377;-88
2022/12/03 07:03:33;;;;;;;;;24.50;15.75;;;;;4.72;72.44;101415.41;5054517;28;47015;-88
2022/12/03 07:05:58;;;;;;;;;18.75;15.00;;;;;4.71;72.78;101418.84;5038962;28;64441;-88
2022/12/03 07:08:24;;;;;;;;;21.75;14.00;;;;;4.71;72.57;101420.56;5039201;28;57669;-88
2022/12/03 07:10:49;;;;;;;;;23.75;13.00;;;;;4.71;72.86;101416.25;5039684;28;46981;-88
2022/12/03 07:13:14;;;;;;;;;23.00;20.50;;;;;4.73;72.57;101419.72;5039339;28;50454;-88
2022/12/03 07:15:40;;;;;;;;;24.25;17.00;;;;;4.74;72.61;101413.72;5039092;28;57558;-91
2022/12/03 07:18:05;;;;;;;;;28.50;16.50;;;;;4.77;72.46;101412.84;5038650;28;54338;-87
2022/12/03 07:20:30;;;;;;;;;21.25;12.00;;;;;4.74;72.28;101423.19;5022295;28;58026;-88
2022/12/03 07:22:56;;;;;;;;;26.25;16.25;;;;;4.73;72.36;101416.28;5055957;28;56298;-88
2022/12/03 07:25:21;;;;;;;;;17.00;13.00;;;;;4.72;72.82;101419.69;5039372;28;46681;-88
2022/12/03 07:27:46;;;;;;;;;15.75;13.25;;;;;4.74;72.45;101412.84;5038529;28;55577;-89
2022/12/03 07:30:13;;;;;;;;;18.25;16.00;;;;;4.74;72.68;101416.28;5056150;28;47188;-88
2022/12/03 07:32:39;;;;;;;;;19.75;10.50;;;;;4.76;72.98;101424.03;5056971;28;45778;-88
2022/12/03 07:35:06;;;;;;;;;18.25;13.00;;;;;4.79;72.73;101424.03;5039039;28;53381;-88
2022/12/03 07:37:32;;;;;;;;;17.75;14.25;;;;;4.78;72.31;101425.75;5039546;28;45560;-88
2022/12/03 07:39:57;;;;;;;;;23.25;11.50;;;;;4.80;72.61;101430.94;5055940;28;47365;-88
2022/12/03 07:42:22;;;;;;;;;16.75;13.00;;;;;4.79;72.44;101421.47;5065519;28;61397;-88
2022/12/03 07:44:48;;;;;;;;;18.50;14.50;;;;;4.78;72.64;101425.75;5077566;27;53027;-88
2022/12/03 07:47:13;;;;;;;;;14.00;8.00;;;;;4.79;72.31;101427.50;5079122;27;56968;-88
2022/12/03 07:49:38;;;;;;;;;19.25;14.00;;;;;4.77;72.56;101433.50;5079745;27;47531;-88
2022/12/03 07:52:06;;;;;;;;;22.25;15.75;;;;;4.77;72.33;101438.66;5078989;27;60301;-88
2022/12/03 07:54:31;;;;;;;;;16.50;13.25;;;;;4.78;72.38;101437.81;5063299;27;45215;-88
2022/12/03 07:56:56;;;;;;;;;29.00;15.75;;;;;4.80;72.65;101441.25;5062948;27;45320;-88
2022/12/03 07:59:22;;;;;;;;;23.25;15.00;;;;;4.83;72.99;101443.88;5079285;27;47201;-88
2022/12/03 08:01:47;;;;;;;;;21.25;13.75;;;;;4.85;72.48;101443.00;5079225;27;45425;-88
2022/12/03 08:04:13;;;;;;;;;22.50;16.00;;;;;4.86;72.21;101430.97;5051798;28;56267;-88
2022/12/03 08:06:39;;;;;;;;;17.25;11.00;;;;;4.84;72.47;101441.25;5059329;28;45349;-88
2022/12/03 08:09:04;;;;;;;;;21.75;13.25;;;;;4.87;72.65;101443.03;5075574;28;47217;-88
2022/12/03 08:11:31;;;;;;;;;20.00;14.00;;;;;4.87;72.32;101444.72;5058318;28;58686;-88
2022/12/03 08:13:58;;;;;;;;;23.25;17.25;;;;;4.88;72.25;101443.88;5077020;28;45421;-88
2022/12/03 08:16:23;;;;;;;;;19.25;13.50;;;;;4.90;72.06;101442.16;5041947;28;45355;-88
2022/12/03 08:18:49;;;;;;;;;15.50;12.50;;;;;4.93;72.70;101439.63;5058556;28;46642;-88
2022/12/03 08:21:23;;;;;;;;;21.00;13.00;;;;;4.97;72.27;101438.78;5039232;28;45693;-88
2022/12/03 08:23:48;;;;;;;;;18.00;12.25;;;;;5.00;72.27;101431.06;5076964;28;45269;-88
2022/12/03 08:26:23;;;;;;;;;21.00;16.75;;;;;4.97;71.87;101431.03;5076810;28;45300;-89
2022/12/03 08:28:51;;;;;;;;;29.25;13.00;;;;;4.96;71.78;101427.59;5074726;28;47030;-88
2022/12/03 08:31:19;;;;;;;;;13.50;11.00;;;;;4.96;71.90;101434.44;5041222;28;45353;-89
2022/12/03 08:33:49;;;;;;;;;19.50;13.50;;;;;4.94;72.13;101431.88;5076609;28;45552;-90
2022/12/03 08:36:28;;;;;;;;;21.50;13.00;;;;;4.96;72.07;101434.44;5058956;28;45459;-89
2022/12/03 08:38:59;;;;;;;;;24.75;13.50;;;;;4.95;71.55;101435.31;5073287;27;46850;-87
2022/12/03 08:44:19;;;;;;;;;17.00;12.00;;;;;5.02;72.17;101429.34;5063330;28;45312;-87
2022/12/03 08:46:44;;;;;;;;;28.75;16.75;;;;;5.06;71.87;101431.06;5044229;28;45480;-86
2022/12/03 08:49:10;;;;;;;;;17.50;15.25;;;;;5.10;71.74;101435.38;5043950;28;47880;-87
2022/12/03 08:51:35;;;;;;;;;18.50;16.25;;;;;5.12;71.95;101431.09;5060017;28;45392;-88
2022/12/03 08:54:11;;;;;;;;;16.00;11.75;;;;;5.13;71.69;101424.25;5078032;28;54793;-86
2022/12/03 08:56:38;;;;;;;;;25.25;12.50;;;;;5.13;71.46;101425.09;5051805;28;45404;-86
2022/12/03 08:59:28;;;;;;;;;14.00;8.50;;;;;5.16;71.57;101414.78;5043463;28;48509;-86
2022/12/03 09:01:54;;;;;;;;;23.00;17.00;;;;;5.19;71.47;101419.94;5078803;28;45844;-85
2022/12/03 09:04:44;;;;;;;;;18.00;11.50;;;;;5.22;71.31;101421.69;5050088;28;45361;-87
2022/12/03 09:07:10;;;;;;;;;20.00;13.00;;;;;5.24;71.70;101420.84;5049525;27;45508;-87
2022/12/03 09:09:35;;;;;;;;;10.50;10.25;;;;;5.27;71.61;101426.88;5059944;28;62448;-86
2022/12/03 09:12:03;;;;;;;;;14.00;11.00;;;;;5.24;71.43;101423.41;5079142;28;45324;-87
2022/12/03 09:14:28;;;;;;;;;19.75;14.00;;;;;5.25;71.37;101419.09;5060679;28;45338;-86
2022/12/03 09:16:54;;;;;;;;;17.75;11.75;;;;;5.27;71.24;101419.13;5078550;28;50880;-84
2022/12/03 09:19:21;;;;;;;;;19.50;13.00;;;;;5.28;71.24;101413.97;5078763;28;47057;-84
2022/12/03 09:21:47;;;;;;;;;16.25;11.00;;;;;5.29;70.55;101412.25;5061258;28;45454;-84
2022/12/03 09:24:12;;;;;;;;;16.75;14.00;;;;;5.27;70.88;101411.38;5061039;28;49818;-83
2022/12/03 09:26:38;;;;;;;;;15.00;10.50;;;;;5.23;70.98;101407.91;5060964;28;48981;-84
2022/12/03 09:29:03;;;;;;;;;15.75;10.25;;;;;5.20;70.80;101415.63;5060006;28;62455;-84
2022/12/03 09:31:28;;;;;;;;;15.50;11.25;;;;;5.18;70.86;101409.63;5078710;28;52300;-84
2022/12/03 09:33:54;;;;;;;;;11.25;10.75;;;;;5.17;71.61;101423.38;5079353;28;45398;-84
2022/12/03 09:36:19;;;;;;;;;21.75;14.00;;;;;5.19;71.54;101409.63;5061127;28;45474;-84
2022/12/03 09:38:44;;;;;;;;;19.00;13.00;;;;;5.23;71.19;101418.25;5060208;28;68894;-84
2022/12/03 09:41:10;;;;;;;;;18.75;12.25;;;;;5.27;71.36;101426.88;5065279;28;45447;-87
2022/12/03 09:43:35;;;;;;;;;16.00;11.50;;;;;5.26;71.18;101420.00;5078916;27;45403;-89
2022/12/03 09:46:01;;;;;;;;;10.75;9.00;;;;;5.24;71.13;101425.16;5081979;27;47162;-87
2022/12/03 09:48:27;;;;;;;;;13.25;13.00;;;;;5.26;71.66;101423.44;5081762;27;63518;-88
2022/12/03 09:50:52;;;;;;;;;13.75;10.00;;;;;5.29;71.29;101419.97;5100260;27;45269;-86
2022/12/03 09:53:20;;;;;;;;;21.75;16.25;;;;;5.29;70.82;101415.69;5063835;27;45905;-82
2022/12/03 09:55:46;;;;;;;;;18.75;11.00;;;;;5.28;70.67;101426.88;5100584;27;45283;-87
2022/12/03 09:58:13;;;;;;;;;13.25;8.00;;;;;5.29;70.88;101430.31;5099285;27;46452;-87
2022/12/03 10:00:40;;;;;;;;;15.00;9.00;;;;;5.30;70.99;101426.88;5081016;27;46107;-84
2022/12/03 10:03:06;;;;;;;;;13.50;10.50;;;;;5.31;70.79;101421.75;5079635;27;45515;-87
2022/12/03 10:05:32;;;;;;;;;13.25;10.50;;;;;5.32;70.48;101423.44;5059896;28;45886;-87
2022/12/03 10:08:07;;;;;;;;;13.25;10.50;;;;;5.35;70.61;101415.72;5042662;28;47399;-86
2022/12/03 10:10:33;;;;;;;;;15.75;10.00;;;;;5.34;70.77;101416.56;5042607;28;45888;-87
2022/12/03 10:12:59;;;;;;;;;18.50;10.75;;;;;5.37;70.59;101411.41;5078251;28;45388;-86
2022/12/03 10:15:25;;;;;;;;;9.75;6.00;;;;;5.37;70.48;101392.50;5059058;28;66272;-86
2022/12/03 10:17:51;;;;;;;;;11.50;11.00;;;;;5.40;70.58;101402.81;5042679;28;46165;-86
2022/12/03 10:20:19;;;;;;;;;12.75;12.00;;;;;5.41;70.16;101396.81;5059528;28;45819;-86
2022/12/03 10:22:47;;;;;;;;;14.25;10.00;;;;;5.43;70.49;101389.91;5059771;28;45427;-87
2022/12/03 10:25:15;;;;;;;;;14.75;10.75;;;;;5.48;70.24;101379.59;5059666;28;45830;-87
2022/12/03 10:27:41;;;;;;;;;18.75;10.50;;;;;5.50;70.08;101389.09;5059425;28;45365;-86
2022/12/03 10:30:27;;;;;;;;;20.00;14.25;;;;;5.50;70.10;101381.34;5059039;28;55812;-86
2022/12/03 10:32:53;;;;;;;;;15.75;10.50;;;;;5.51;69.67;101385.63;5077570;28;45350;-87
2022/12/03 10:35:40;;;;;;;;;15.75;8.75;;;;;5.51;69.79;101364.13;5042650;28;45323;-86
2022/12/03 10:38:23;;;;;;;;;15.25;9.75;;;;;5.50;69.71;101375.28;5059263;28;46281;-87
2022/12/03 10:40:49;;;;;;;;;13.50;13.25;;;;;5.50;69.60;101375.28;5058938;28;45724;-86
2022/12/03 10:43:17;;;;;;;;;12.00;12.00;;;;;5.52;70.13;101379.63;5059288;28;45693;-86
2022/12/03 10:45:44;;;;;;;;;15.00;10.00;;;;;5.52;69.50;101366.69;5059256;28;45335;-86
2022/12/03 10:48:20;;;;;;;;;19.25;10.00;;;;;5.53;69.84;101373.56;5059167;28;46930;-86
2022/12/03 10:50:48;;;;;;;;;10.00;9.00;;;;;5.59;69.78;101365.88;5058861;28;46188;-86
2022/12/03 10:53:14;;;;;;;;;17.00;8.50;;;;;5.59;69.81;101373.59;5077104;28;45315;-86
2022/12/03 10:55:41;;;;;;;;;14.50;12.75;;;;;5.59;69.63;101362.41;5058746;28;45464;-86
2022/12/03 10:58:19;;;;;;;;;15.50;10.00;;;;;5.59;69.59;101357.22;5059163;28;45432;-87
2022/12/03 11:00:44;;;;;;;;;20.00;8.00;;;;;5.62;69.93;101363.25;5042196;28;45733;-85
2022/12/03 11:03:36;;;;;;;;;9.00;7.75;;;;;5.63;69.44;101358.97;5076196;28;45300;-86
2022/12/03 11:06:02;;;;;;;;;10.50;6.50;;;;;5.58;68.96;101356.38;5073994;28;60177;-85
2022/12/03 11:08:37;;;;;;;;;9.25;8.00;;;;;5.53;69.23;101359.81;5058343;28;46291;-86
2022/12/03 11:11:03;;;;;;;;;19.50;8.00;;;;;5.49;69.20;101356.34;5058485;28;45870;-86
2022/12/03 11:13:32;;;;;;;;;14.50;9.50;;;;;5.51;69.26;101352.06;5058789;28;45262;-86
2022/12/03 11:15:58;;;;;;;;;14.50;10.50;;;;;5.51;69.08;101356.38;5076892;28;45282;-86
2022/12/03 11:18:36;;;;;;;;;15.25;9.00;;;;;5.50;69.20;101344.31;5058492;28;45451;-86
2022/12/03 11:21:08;;;;;;;;;15.50;8.75;;;;;5.50;69.73;101350.34;5076543;28;45961;-86
2022/12/03 11:23:43;;;;;;;;;11.00;8.00;;;;;5.52;69.03;101340.88;5058363;28;45383;-86
2022/12/03 11:26:08;;;;;;;;;19.75;10.75;;;;;5.51;69.08;101340.88;5076791;28;45453;-86
2022/12/03 11:28:35;;;;;;;;;6.00;1.00;;;;;5.50;69.54;101345.19;5040653;28;69769;-86
2022/12/03 11:31:08;;;;;;;;;17.25;10.00;;;;;5.53;69.75;101341.72;5058424;28;45859;-86
2022/12/03 11:33:35;;;;;;;;;11.00;8.50;;;;;5.56;69.56;101350.34;5076466;28;45470;-86
2022/12/03 11:36:04;;;;;;;;;16.00;10.00;;;;;5.57;69.18;101341.75;5076664;28;45601;-86